createdAt,value
2018-06-27T00:01:29.234Z,74.77
2018-06-27T00:03:57.929Z,75.72
2018-06-27T00:06:26.503Z,75.12
2018-06-27T00:08:55.062Z,74.50
2018-06-27T00:11:23.826Z,75.07
2018-06-27T00:13:52.456Z,74.32
2018-06-27T00:16:21.192Z,74.90
2018-06-27T00:18:49.836Z,74.21
2018-06-27T00:21:18.376Z,74.62
2018-06-27T00:23:46.983Z,75.07
2018-06-27T00:26:15.566Z,74.62
2018-06-27T00:28:44.184Z,73.86
2018-06-27T00:31:12.752Z,73.42
2018-06-27T00:33:41.380Z,74.18
2018-06-27T00:36:09.968Z,74.74
2018-06-27T00:38:38.533Z,74.46
2018-06-27T00:41:07.216Z,74.27
2018-06-27T00:43:35.842Z,73.30
2018-06-27T00:46:04.488Z,72.69
2018-06-27T00:48:33.126Z,72.85
2018-06-27T00:51:01.673Z,73.32
2018-06-27T00:53:35.598Z,74.50
2018-06-27T00:56:04.333Z,75.00
2018-06-27T00:58:32.987Z,74.93
2018-06-27T01:01:01.777Z,75.07
2018-06-27T01:03:30.740Z,75.76
2018-06-27T01:05:59.312Z,75.47
2018-06-27T01:08:27.880Z,75.63
2018-06-27T01:10:56.492Z,75.14
2018-06-27T01:13:25.072Z,76.17
2018-06-27T01:15:53.922Z,76.25
2018-06-27T01:18:22.689Z,77.66
2018-06-27T01:20:51.531Z,76.91
2018-06-27T01:23:20.402Z,76.03
2018-06-27T01:25:49.204Z,77.41
2018-06-27T01:28:17.825Z,76.68
2018-06-27T01:30:46.659Z,76.38
2018-06-27T01:33:15.274Z,75.58
2018-06-27T01:35:43.959Z,75.06
2018-06-27T01:38:12.492Z,75.65
2018-06-27T01:40:41.155Z,76.19
2018-06-27T01:43:09.749Z,75.55
2018-06-27T01:45:38.352Z,75.95
2018-06-27T01:48:06.940Z,75.72
2018-06-27T01:50:35.543Z,75.46
2018-06-27T01:53:04.293Z,74.60
2018-06-27T01:55:33.282Z,74.16
2018-06-27T01:58:02.372Z,74.08
2018-06-27T02:00:32.172Z,74.36
2018-06-27T02:03:00.869Z,74.43
2018-06-27T02:05:29.931Z,74.31
2018-06-27T02:07:58.746Z,75.00
2018-06-27T02:10:27.434Z,74.45
2018-06-27T02:12:56.233Z,74.56
2018-06-27T02:15:24.948Z,75.38
2018-06-27T02:17:53.750Z,75.04
2018-06-27T02:20:22.429Z,75.40
2018-06-27T02:22:51.158Z,75.44
2018-06-27T02:25:19.904Z,76.11
2018-06-27T02:27:48.822Z,75.89
2018-06-27T02:30:17.528Z,76.10
2018-06-27T02:32:46.228Z,77.29
2018-06-27T02:35:14.922Z,77.16
2018-06-27T02:37:43.593Z,76.56
2018-06-27T02:40:12.253Z,77.00
2018-06-27T02:42:40.869Z,76.48
2018-06-27T02:45:09.552Z,76.40
2018-06-27T02:47:38.326Z,76.29
2018-06-27T02:50:07.037Z,77.23
2018-06-27T02:52:35.749Z,76.19
2018-06-27T02:55:04.408Z,76.27
2018-06-27T02:57:33.103Z,76.88
2018-06-27T03:00:01.717Z,77.10
2018-06-27T03:02:30.508Z,77.09
2018-06-27T03:04:58.957Z,78.14
2018-06-27T03:07:27.620Z,78.66
2018-06-27T03:09:56.187Z,78.34
2018-06-27T03:12:24.764Z,78.22
2018-06-27T03:14:53.444Z,79.14
2018-06-27T03:17:22.008Z,79.49
2018-06-27T03:19:50.663Z,80.51
2018-06-27T03:22:19.276Z,81.52
2018-06-27T03:24:47.922Z,81.85
2018-06-27T03:27:16.530Z,80.77
2018-06-27T03:29:45.176Z,79.90
2018-06-27T03:32:13.777Z,79.46
2018-06-27T03:34:42.356Z,78.74
2018-06-27T03:37:10.987Z,78.55
2018-06-27T03:39:39.733Z,78.83
2018-06-27T03:42:08.460Z,78.17
2018-06-27T03:44:37.043Z,78.56
2018-06-27T03:47:05.656Z,79.01
2018-06-27T03:49:34.351Z,79.88
2018-06-27T03:52:03.075Z,80.38
2018-06-27T03:54:31.804Z,80.72
2018-06-27T03:57:00.433Z,80.72
2018-06-27T03:59:29.133Z,80.67
2018-06-27T04:01:57.754Z,79.55
2018-06-27T04:04:26.325Z,78.89
2018-06-27T04:06:54.948Z,78.46
2018-06-27T04:09:23.519Z,78.37
2018-06-27T04:11:52.184Z,78.19
2018-06-27T04:14:20.738Z,78.72
2018-06-27T04:16:49.388Z,77.76
2018-06-27T04:19:17.924Z,77.99
2018-06-27T04:21:46.489Z,77.73
2018-06-27T04:24:15.060Z,78.62
2018-06-27T04:26:43.735Z,78.00
2018-06-27T04:29:12.449Z,78.83
2018-06-27T04:31:41.094Z,79.24
2018-06-27T04:34:09.761Z,80.23
2018-06-27T04:36:38.329Z,79.96
2018-06-27T04:39:09.071Z,80.60
2018-06-27T04:41:37.919Z,80.44
2018-06-27T04:44:06.535Z,81.05
2018-06-27T04:46:35.605Z,81.20
2018-06-27T04:49:04.348Z,80.73
2018-06-27T04:51:33.470Z,81.20
2018-06-27T04:54:02.169Z,80.85
2018-06-27T04:56:30.748Z,79.89
2018-06-27T04:58:59.423Z,80.23
2018-06-27T05:01:28.025Z,79.05
2018-06-27T05:03:56.737Z,78.84
2018-06-27T05:06:25.303Z,78.61
2018-06-27T05:08:53.974Z,77.74
2018-06-27T05:11:22.651Z,78.52
2018-06-27T05:13:51.309Z,78.92
2018-06-27T05:16:19.888Z,78.81
2018-06-27T05:18:48.898Z,79.12
2018-06-27T05:21:17.978Z,79.09
2018-06-27T05:23:47.233Z,79.00
2018-06-27T05:26:16.341Z,79.06
2018-06-27T05:28:45.329Z,79.23
2018-06-27T05:31:14.471Z,78.30
2018-06-27T05:33:44.127Z,78.55
2018-06-27T05:36:13.164Z,78.98
2018-06-27T05:38:42.093Z,78.25
2018-06-27T05:41:10.775Z,78.51
2018-06-27T05:43:39.482Z,78.79
2018-06-27T05:46:08.244Z,77.79
2018-06-27T05:48:37.042Z,78.55
2018-06-27T05:51:05.773Z,77.89
2018-06-27T05:53:34.521Z,78.09
2018-06-27T05:56:03.355Z,78.44
2018-06-27T05:58:32.204Z,77.95
2018-06-27T06:01:01.129Z,77.06
2018-06-27T06:03:29.711Z,78.03
2018-06-27T06:05:58.466Z,77.81
2018-06-27T06:08:27.269Z,77.32
2018-06-27T06:10:56.041Z,77.58
2018-06-27T06:13:24.797Z,76.62
2018-06-27T06:15:53.567Z,76.88
2018-06-27T06:18:23.008Z,76.14
2018-06-27T06:20:51.840Z,76.50
2018-06-27T06:23:20.544Z,76.34
2018-06-27T06:25:49.377Z,75.08
2018-06-27T06:28:18.049Z,75.10
2018-06-27T06:30:46.690Z,74.88
2018-06-27T06:33:15.411Z,75.31
2018-06-27T06:35:44.120Z,75.33
2018-06-27T06:38:12.757Z,75.31
2018-06-27T06:40:41.397Z,74.09
2018-06-27T06:43:09.994Z,74.05
2018-06-27T06:45:38.721Z,74.36
2018-06-27T06:48:07.501Z,74.60
2018-06-27T06:50:36.133Z,74.42
2018-06-27T06:53:05.001Z,73.71
2018-06-27T06:55:33.564Z,73.53
2018-06-27T06:58:02.276Z,73.92
2018-06-27T07:00:30.848Z,73.71
2018-06-27T07:02:59.440Z,73.05
2018-06-27T07:05:28.165Z,72.80
2018-06-27T07:07:56.784Z,72.30
2018-06-27T07:10:25.337Z,71.66
2018-06-27T07:12:54.052Z,71.35
2018-06-27T07:15:22.680Z,71.11
2018-06-27T07:17:51.364Z,70.15
2018-06-27T07:20:19.927Z,69.88
2018-06-27T07:22:48.577Z,69.80
2018-06-27T07:25:17.137Z,69.58
2018-06-27T07:27:45.833Z,69.35
2018-06-27T07:30:14.513Z,68.92
2018-06-27T07:32:43.374Z,68.58
2018-06-27T07:35:11.966Z,68.78
2018-06-27T07:37:40.654Z,67.76
2018-06-27T07:40:09.200Z,67.51
2018-06-27T07:42:37.818Z,67.78
2018-06-27T07:45:06.413Z,67.86
2018-06-27T07:47:35.039Z,67.36
2018-06-27T07:50:03.887Z,67.61
2018-06-27T07:52:32.475Z,68.22
2018-06-27T07:55:01.088Z,67.56
2018-06-27T07:57:29.789Z,67.38
2018-06-27T07:59:58.388Z,66.65
2018-06-27T08:02:27.061Z,66.24
2018-06-27T08:04:55.748Z,66.93
2018-06-27T08:07:24.361Z,66.50
2018-06-27T08:09:53.008Z,65.94
2018-06-27T08:12:21.579Z,66.01
2018-06-27T08:14:50.124Z,64.55
2018-06-27T08:17:18.695Z,64.45
2018-06-27T08:19:47.277Z,64.41
2018-06-27T08:22:15.821Z,63.39
2018-06-27T08:24:44.624Z,63.38
2018-06-27T08:27:13.257Z,63.18
2018-06-27T08:29:42.135Z,63.50
2018-06-27T08:32:10.747Z,63.65
2018-06-27T08:34:39.472Z,62.94
2018-06-27T08:37:07.995Z,63.38
2018-06-27T08:39:36.553Z,63.09
2018-06-27T08:42:05.225Z,63.83
2018-06-27T08:44:33.823Z,63.58
2018-06-27T08:47:02.528Z,63.31
2018-06-27T08:49:31.053Z,61.98
2018-06-27T08:51:59.631Z,61.55
2018-06-27T08:54:28.245Z,60.93
2018-06-27T08:56:56.873Z,61.20
2018-06-27T08:59:25.417Z,60.79
2018-06-27T09:01:54.153Z,60.80
2018-06-27T09:04:22.805Z,61.43
2018-06-27T09:06:51.420Z,59.19
2018-06-27T09:09:19.959Z,59.08
2018-06-27T09:11:48.558Z,56.92
2018-06-27T09:14:17.104Z,57.82
2018-06-27T09:16:45.733Z,56.94
2018-06-27T09:19:14.265Z,58.47
2018-06-27T09:21:42.874Z,56.55
2018-06-27T09:24:11.454Z,54.20
2018-06-27T09:26:40.036Z,53.61
2018-06-27T09:29:08.712Z,53.58
2018-06-27T09:31:37.374Z,54.17
2018-06-27T09:34:06.291Z,52.95
2018-06-27T09:36:34.923Z,52.09
2018-06-27T09:39:03.924Z,51.66
2018-06-27T09:41:32.449Z,52.27
2018-06-27T09:44:01.023Z,52.35
2018-06-27T09:46:29.608Z,52.60
2018-06-27T09:48:58.290Z,52.21
2018-06-27T09:51:26.864Z,52.04
2018-06-27T09:53:55.708Z,52.02
2018-06-27T09:56:24.380Z,51.87
2018-06-27T09:58:53.023Z,51.77
2018-06-27T10:01:21.648Z,51.55
2018-06-27T10:03:50.338Z,50.62
2018-06-27T10:06:18.930Z,51.72
2018-06-27T10:08:47.604Z,50.75
2018-06-27T10:11:16.232Z,48.93
2018-06-27T10:13:44.806Z,49.61
2018-06-27T10:16:13.360Z,49.88
2018-06-27T10:18:42.085Z,50.74
2018-06-27T10:21:10.652Z,48.62
2018-06-27T10:23:39.205Z,49.03
2018-06-27T10:26:07.895Z,48.81
2018-06-27T10:28:37.819Z,49.83
2018-06-27T10:31:06.505Z,49.01
2018-06-27T10:33:35.142Z,49.79
2018-06-27T10:36:03.759Z,48.66
2018-06-27T10:38:32.304Z,49.32
2018-06-27T10:41:00.918Z,49.45
2018-06-27T10:43:29.456Z,48.19
2018-06-27T10:45:58.096Z,48.41
2018-06-27T10:48:26.765Z,47.37
2018-06-27T10:50:55.379Z,47.80
2018-06-27T10:53:23.940Z,49.70
2018-06-27T10:55:52.579Z,50.69
2018-06-27T10:58:21.249Z,50.47
2018-06-27T11:00:49.893Z,50.21
2018-06-27T11:03:18.488Z,49.16
2018-06-27T11:05:47.089Z,49.23
2018-06-27T11:08:15.612Z,48.43
2018-06-27T11:10:44.403Z,48.41
2018-06-27T11:13:13.077Z,46.94
2018-06-27T11:15:41.652Z,47.97
2018-06-27T11:18:10.202Z,48.77
2018-06-27T11:20:38.847Z,48.37
2018-06-27T11:23:07.382Z,44.81
2018-06-27T11:25:35.993Z,44.18
2018-06-27T11:28:04.639Z,42.27
2018-06-27T11:30:33.271Z,43.28
2018-06-27T11:33:01.932Z,44.13
2018-06-27T11:35:30.477Z,41.70
2018-06-27T11:37:59.055Z,40.17
2018-06-27T11:40:27.597Z,39.23
2018-06-27T11:42:56.280Z,38.86
2018-06-27T11:45:24.821Z,39.65
2018-06-27T11:47:53.424Z,40.58
2018-06-27T11:50:22.090Z,41.58
2018-06-27T11:52:50.718Z,39.50
2018-06-27T11:55:19.272Z,39.02
2018-06-27T11:57:47.944Z,37.19
2018-06-27T12:00:16.749Z,38.20
2018-06-27T12:02:45.427Z,36.72
2018-06-27T12:05:13.996Z,36.51
2018-06-27T12:07:42.617Z,35.43
2018-06-27T12:10:11.180Z,35.94
2018-06-27T12:12:39.777Z,35.55
2018-06-27T12:15:08.325Z,35.66
2018-06-27T12:17:36.941Z,36.04
2018-06-27T12:20:05.793Z,33.08
2018-06-27T12:22:34.383Z,34.39
2018-06-27T12:25:03.088Z,34.17
2018-06-27T12:27:31.737Z,34.97
2018-06-27T12:30:00.380Z,32.95
2018-06-27T12:32:28.960Z,33.75
2018-06-27T12:34:57.543Z,33.10
2018-06-27T12:37:26.134Z,32.55
2018-06-27T12:39:54.873Z,32.81
2018-06-27T12:42:23.420Z,31.70
2018-06-27T12:44:52.146Z,32.17
2018-06-27T12:47:20.700Z,31.26
2018-06-27T12:49:49.356Z,33.13
2018-06-27T12:52:17.912Z,32.33
2018-06-27T12:54:46.550Z,31.06
2018-06-27T12:57:15.103Z,32.98
2018-06-27T12:59:43.867Z,31.36
2018-06-27T13:02:12.425Z,32.30
2018-06-27T13:04:41.028Z,33.53
2018-06-27T13:07:09.615Z,32.39
2018-06-27T13:09:38.529Z,31.91
2018-06-27T13:12:07.116Z,32.77
2018-06-27T13:14:35.682Z,31.01
2018-06-27T13:17:04.523Z,31.36
2018-06-27T13:19:33.100Z,32.29
2018-06-27T13:22:01.738Z,31.85
2018-06-27T13:24:30.327Z,32.03
2018-06-27T13:26:58.982Z,32.92
2018-06-27T13:29:27.637Z,31.49
2018-06-27T13:31:56.208Z,31.26
2018-06-27T13:34:24.809Z,31.75
2018-06-27T13:36:53.491Z,32.44
2018-06-27T13:39:22.024Z,31.80
2018-06-27T13:41:50.715Z,33.06
2018-06-27T13:44:19.274Z,32.47
2018-06-27T13:46:47.942Z,33.39
2018-06-27T13:49:16.564Z,32.94
2018-06-27T13:51:45.232Z,32.15
2018-06-27T13:54:14.069Z,33.73
2018-06-27T13:56:42.905Z,33.29
2018-06-27T13:59:11.473Z,33.52
2018-06-27T14:01:40.114Z,32.34
2018-06-27T14:04:08.743Z,33.67
2018-06-27T14:06:37.320Z,31.84
2018-06-27T14:09:08.137Z,31.28
2018-06-27T14:11:36.736Z,31.57
2018-06-27T14:14:05.812Z,33.63
2018-06-27T14:16:34.645Z,33.59
2018-06-27T14:19:03.350Z,33.42
2018-06-27T14:21:32.093Z,32.95
2018-06-27T14:24:00.799Z,33.17
2018-06-27T14:26:29.424Z,33.25
2018-06-27T14:28:58.072Z,33.19
2018-06-27T14:31:26.642Z,31.63
2018-06-27T14:33:55.396Z,30.27
2018-06-27T14:36:24.022Z,29.40
2018-06-27T14:38:52.613Z,29.53
2018-06-27T14:41:21.138Z,31.10
2018-06-27T14:43:49.735Z,31.35
2018-06-27T14:46:18.301Z,30.09
2018-06-27T14:48:47.449Z,30.78
2018-06-27T14:51:16.192Z,31.06
2018-06-27T14:53:44.877Z,28.32
2018-06-27T14:56:13.448Z,28.42
2018-06-27T14:58:42.079Z,29.27
2018-06-27T15:01:10.665Z,28.35
2018-06-27T15:03:39.484Z,28.85
2018-06-27T15:06:08.268Z,28.69
2018-06-27T15:08:36.927Z,28.96
2018-06-27T15:11:05.641Z,27.80
2018-06-27T15:13:34.246Z,27.74
2018-06-27T15:16:02.894Z,28.18
2018-06-27T15:18:31.439Z,29.29
2018-06-27T15:21:00.210Z,29.16
2018-06-27T15:23:28.840Z,26.04
2018-06-27T15:25:57.409Z,26.92
2018-06-27T15:28:26.023Z,27.96
2018-06-27T15:30:54.677Z,27.02
2018-06-27T15:33:23.364Z,25.08
2018-06-27T15:35:51.957Z,25.08
2018-06-27T15:38:20.786Z,25.87
2018-06-27T15:40:49.288Z,26.43
2018-06-27T15:43:18.105Z,26.03
2018-06-27T15:45:46.672Z,27.37
2018-06-27T15:48:15.280Z,26.88
2018-06-27T15:50:43.980Z,25.64
2018-06-27T15:53:12.618Z,25.86
2018-06-27T15:55:41.269Z,24.78
2018-06-27T15:58:09.836Z,25.01
2018-06-27T16:00:38.461Z,25.37
2018-06-27T16:03:07.468Z,26.02
2018-06-27T16:05:36.137Z,27.18
2018-06-27T16:08:05.169Z,26.79
2018-06-27T16:10:33.772Z,26.22
2018-06-27T16:13:02.413Z,25.65
2018-06-27T16:15:31.669Z,26.07
2018-06-27T16:18:00.602Z,27.29
2018-06-27T16:20:29.342Z,28.35
2018-06-27T16:22:58.057Z,27.83
2018-06-27T16:25:26.808Z,27.66
2018-06-27T16:27:55.420Z,27.67
2018-06-27T16:30:24.082Z,29.56
2018-06-27T16:32:52.757Z,28.68
2018-06-27T16:35:21.387Z,29.06
2018-06-27T16:37:50.085Z,28.17
2018-06-27T16:40:18.768Z,29.81
2018-06-27T16:42:47.488Z,28.82
2018-06-27T16:45:16.148Z,29.09
2018-06-27T16:47:44.768Z,29.30
2018-06-27T16:50:13.331Z,29.73
2018-06-27T16:52:41.998Z,29.92
2018-06-27T16:55:10.664Z,29.95
2018-06-27T16:57:39.408Z,29.39
2018-06-27T17:00:08.768Z,30.18
2018-06-27T17:02:37.406Z,29.96
2018-06-27T17:05:06.797Z,29.07
2018-06-27T17:07:35.608Z,30.09
2018-06-27T17:10:04.845Z,29.62
2018-06-27T17:12:33.549Z,29.44
2018-06-27T17:15:02.392Z,30.06
2018-06-27T17:17:31.033Z,29.58
2018-06-27T17:19:59.652Z,29.76
2018-06-27T17:22:28.484Z,30.30
2018-06-27T17:24:57.138Z,29.80
2018-06-27T17:27:25.726Z,30.84
2018-06-27T17:29:54.394Z,30.86
2018-06-27T17:32:23.017Z,30.75
2018-06-27T17:34:51.657Z,29.67
2018-06-27T17:37:20.225Z,30.26
2018-06-27T17:39:49.045Z,30.62
2018-06-27T17:42:17.637Z,30.72
2018-06-27T17:44:46.297Z,30.00
2018-06-27T17:47:14.834Z,30.27
2018-06-27T17:49:43.651Z,31.69
2018-06-27T17:52:12.249Z,31.54
2018-06-27T17:54:40.873Z,31.91
2018-06-27T17:57:09.545Z,32.85
2018-06-27T17:59:38.156Z,32.82
2018-06-27T18:02:06.961Z,33.55
2018-06-27T18:04:35.550Z,33.21
2018-06-27T18:07:04.238Z,33.71
2018-06-27T18:09:32.884Z,35.34
2018-06-27T18:12:01.512Z,34.92
2018-06-27T18:14:30.180Z,35.67
2018-06-27T18:16:58.909Z,34.42
2018-06-27T18:19:27.521Z,34.04
2018-06-27T18:21:56.136Z,35.04
2018-06-27T18:24:24.752Z,34.38
2018-06-27T18:26:53.429Z,34.12
2018-06-27T18:29:22.053Z,35.25
2018-06-27T18:31:52.481Z,33.42
2018-06-27T18:34:21.362Z,33.12
2018-06-27T18:36:50.162Z,34.11
2018-06-27T18:39:18.792Z,35.42
2018-06-27T18:41:47.458Z,34.58
2018-06-27T18:44:16.098Z,35.53
2018-06-27T18:46:44.744Z,35.25
2018-06-27T18:49:13.438Z,35.79
2018-06-27T18:51:42.106Z,35.07
2018-06-27T18:54:10.820Z,34.94
2018-06-27T18:56:39.421Z,36.54
2018-06-27T18:59:08.056Z,36.16
2018-06-27T19:01:36.768Z,37.07
2018-06-27T19:04:05.697Z,37.31
2018-06-27T19:06:34.289Z,37.37
2018-06-27T19:09:02.961Z,37.96
2018-06-27T19:11:35.426Z,36.98
2018-06-27T19:14:04.303Z,38.09
2018-06-27T19:16:32.867Z,38.40
2018-06-27T19:19:01.623Z,38.90
2018-06-27T19:21:30.232Z,39.13
2018-06-27T19:23:58.977Z,38.83
2018-06-27T19:26:27.518Z,39.85
2018-06-27T19:28:56.418Z,39.50
2018-06-27T19:31:25.308Z,39.13
2018-06-27T19:33:54.038Z,40.13
2018-06-27T19:36:22.857Z,39.21
2018-06-27T19:38:51.621Z,40.72
2018-06-27T19:41:20.317Z,40.37
2018-06-27T19:43:49.023Z,41.45
2018-06-27T19:46:17.612Z,40.80
2018-06-27T19:48:46.285Z,40.16
2018-06-27T19:51:14.896Z,42.03
2018-06-27T19:53:43.576Z,42.12
2018-06-27T19:56:12.205Z,41.25
2018-06-27T19:58:40.763Z,42.49
2018-06-27T20:01:09.393Z,42.95
2018-06-27T20:03:38.000Z,42.26
2018-06-27T20:06:06.750Z,42.96
2018-06-27T20:08:35.313Z,42.86
2018-06-27T20:11:03.967Z,42.50
2018-06-27T20:13:32.695Z,42.61
2018-06-27T20:16:01.349Z,42.93
2018-06-27T20:18:29.992Z,43.00
2018-06-27T20:20:58.602Z,43.09
2018-06-27T20:23:27.185Z,43.34
2018-06-27T20:25:55.810Z,43.72
2018-06-27T20:28:24.369Z,44.18
2018-06-27T20:30:53.094Z,44.14
2018-06-27T20:33:21.766Z,43.87
2018-06-27T20:35:50.433Z,44.83
2018-06-27T20:38:19.068Z,43.76
2018-06-27T20:40:47.705Z,44.10
2018-06-27T20:43:16.301Z,44.84
2018-06-27T20:45:44.926Z,44.20
2018-06-27T20:48:13.538Z,44.54
2018-06-27T20:50:42.124Z,45.11
2018-06-27T20:53:10.792Z,45.30
2018-06-27T20:55:39.396Z,46.04
2018-06-27T20:58:08.047Z,46.27
2018-06-27T21:00:36.661Z,46.24
2018-06-27T21:03:05.289Z,45.69
2018-06-27T21:05:33.881Z,45.66
2018-06-27T21:08:02.569Z,46.08
2018-06-27T21:10:31.204Z,47.91
2018-06-27T21:12:59.810Z,46.46
2018-06-27T21:15:28.688Z,46.82
2018-06-27T21:17:57.382Z,46.32
2018-06-27T21:20:26.060Z,48.14
2018-06-27T21:22:54.663Z,46.84
2018-06-27T21:25:23.289Z,48.00
2018-06-27T21:27:51.976Z,48.98
2018-06-27T21:30:20.553Z,47.64
2018-06-27T21:32:49.252Z,47.78
2018-06-27T21:35:17.913Z,48.75
2018-06-27T21:37:46.653Z,47.97
2018-06-27T21:40:15.196Z,47.83
2018-06-27T21:42:43.916Z,47.69
2018-06-27T21:45:12.829Z,49.32
2018-06-27T21:47:41.408Z,48.71
2018-06-27T21:50:10.108Z,49.90
2018-06-27T21:52:38.733Z,48.99
2018-06-27T21:55:07.637Z,50.20
2018-06-27T21:57:36.528Z,50.82
2018-06-27T22:00:06.522Z,48.60
2018-06-27T22:02:35.096Z,49.04
2018-06-27T22:05:03.890Z,50.23
2018-06-27T22:07:32.561Z,48.36
2018-06-27T22:10:01.455Z,49.55
2018-06-27T22:12:30.060Z,48.61
2018-06-27T22:14:58.654Z,49.75
2018-06-27T22:17:27.402Z,49.95
2018-06-27T22:19:55.977Z,49.75
2018-06-27T22:22:24.628Z,50.07
2018-06-27T22:24:53.257Z,49.37
2018-06-27T22:27:21.804Z,50.02
2018-06-27T22:29:50.462Z,50.31
2018-06-27T22:32:19.040Z,49.56
2018-06-27T22:34:47.640Z,49.27
2018-06-27T22:37:16.389Z,49.96
2018-06-27T22:39:45.040Z,49.79
2018-06-27T22:42:13.643Z,50.63
2018-06-27T22:44:42.209Z,49.50
2018-06-27T22:47:10.826Z,49.86
2018-06-27T22:49:39.436Z,51.44
2018-06-27T22:52:08.041Z,49.74
2018-06-27T22:54:36.756Z,50.03
2018-06-27T22:57:05.579Z,50.98
2018-06-27T22:59:34.195Z,49.82
2018-06-27T23:02:02.794Z,50.15
2018-06-27T23:04:31.536Z,49.85
2018-06-27T23:07:00.353Z,50.22
2018-06-27T23:09:29.053Z,50.37
2018-06-27T23:11:57.720Z,52.36
2018-06-27T23:14:26.297Z,50.10
2018-06-27T23:16:55.188Z,51.26
2018-06-27T23:19:23.763Z,51.24
2018-06-27T23:21:52.508Z,51.56
2018-06-27T23:24:21.040Z,51.83
2018-06-27T23:26:49.746Z,51.84
2018-06-27T23:29:18.372Z,51.92
2018-06-27T23:31:47.048Z,52.41
2018-06-27T23:34:15.777Z,51.72
2018-06-27T23:36:44.366Z,52.08
2018-06-27T23:39:13.921Z,52.39
2018-06-27T23:41:43.361Z,52.65
2018-06-27T23:44:11.924Z,51.52
2018-06-27T23:46:40.700Z,52.13
2018-06-27T23:49:09.285Z,52.62
2018-06-27T23:51:37.845Z,53.14
2018-06-27T23:54:06.705Z,52.63
2018-06-27T23:56:35.265Z,53.20
2018-06-27T23:59:04.114Z,52.70
